sensor_id;sensor_type;location;lat;lon;timestamp;temperature;humidity
50013;DHT22;35901;48.694;9.476;2022-10-16T00:01:06;13.00;99.90
50013;DHT22;35901;48.694;9.476;2022-10-16T00:03:32;13.00;99.90
50013;DHT22;35901;48.694;9.476;2022-10-16T00:06:00;13.00;99.90
50013;DHT22;35901;48.694;9.476;2022-10-16T00:08:26;13.00;99.90
50013;DHT22;35901;48.694;9.476;2022-10-16T00:10:52;13.00;99.90
50013;DHT22;35901;48.694;9.476;2022-10-16T00:13:18;13.00;99.90
50013;DHT22;35901;48.694;9.476;2022-10-16T00:15:45;13.00;99.90
50013;DHT22;35901;48.694;9.476;2022-10-16T00:18:12;13.00;99.90
50013;DHT22;35901;48.694;9.476;2022-10-16T00:20:37;13.10;99.90
50013;DHT22;35901;48.694;9.476;2022-10-16T00:23:04;13.00;99.90
50013;DHT22;35901;48.694;9.476;2022-10-16T00:25:31;13.00;99.90
50013;DHT22;35901;48.694;9.476;2022-10-16T00:27:59;13.10;99.90
50013;DHT22;35901;48.694;9.476;2022-10-16T00:30:25;13.00;99.90
50013;DHT22;35901;48.694;9.476;2022-10-16T00:32:53;13.00;99.90
50013;DHT22;35901;48.694;9.476;2022-10-16T00:35:18;13.00;99.90
50013;DHT22;35901;48.694;9.476;2022-10-16T00:37:44;12.90;99.90
50013;DHT22;35901;48.694;9.476;2022-10-16T00:40:10;12.80;99.90
50013;DHT22;35901;48.694;9.476;2022-10-16T00:42:36;12.80;99.90
50013;DHT22;35901;48.694;9.476;2022-10-16T00:45:03;12.70;99.90
50013;DHT22;35901;48.694;9.476;2022-10-16T00:47:33;12.70;99.90
50013;DHT22;35901;48.694;9.476;2022-10-16T00:50:08;12.60;99.90
50013;DHT22;35901;48.694;9.476;2022-10-16T00:52:35;12.60;99.90
50013;DHT22;35901;48.694;9.476;2022-10-16T00:55:03;12.60;99.90
50013;DHT22;35901;48.694;9.476;2022-10-16T00:57:29;12.60;99.90
50013;DHT22;35901;48.694;9.476;2022-10-16T00:59:56;12.60;99.90
50013;DHT22;35901;48.694;9.476;2022-10-16T01:02:24;12.50;99.90
50013;DHT22;35901;48.694;9.476;2022-10-16T01:04:52;12.50;99.90
50013;DHT22;35901;48.694;9.476;2022-10-16T01:10:12;12.60;99.90
50013;DHT22;35901;48.694;9.476;2022-10-16T01:12:59;12.60;99.90
50013;DHT22;35901;48.694;9.476;2022-10-16T01:15:54;12.60;99.90
50013;DHT22;35901;48.694;9.476;2022-10-16T01:18:50;12.70;99.90
50013;DHT22;35901;48.694;9.476;2022-10-16T01:21:42;12.60;99.90
50013;DHT22;35901;48.694;9.476;2022-10-16T01:29:20;12.50;99.90
50013;DHT22;35901;48.694;9.476;2022-10-16T01:31:53;12.50;99.90
50013;DHT22;35901;48.694;9.476;2022-10-16T01:34:25;12.50;99.90
50013;DHT22;35901;48.694;9.476;2022-10-16T01:36:58;12.40;99.90
50013;DHT22;35901;48.694;9.476;2022-10-16T01:39:30;12.40;99.90
50013;DHT22;35901;48.694;9.476;2022-10-16T01:42:19;12.40;99.90
50013;DHT22;35901;48.694;9.476;2022-10-16T01:44:47;12.40;99.90
50013;DHT22;35901;48.694;9.476;2022-10-16T01:47:15;12.40;99.90
50013;DHT22;35901;48.694;9.476;2022-10-16T01:49:41;12.40;99.90
50013;DHT22;35901;48.694;9.476;2022-10-16T01:52:12;12.30;99.90
50013;DHT22;35901;48.694;9.476;2022-10-16T01:54:41;12.30;99.90
50013;DHT22;35901;48.694;9.476;2022-10-16T01:57:10;12.40;99.90
50013;DHT22;35901;48.694;9.476;2022-10-16T01:59:44;12.40;99.90
50013;DHT22;35901;48.694;9.476;2022-10-16T02:02:11;12.40;99.90
50013;DHT22;35901;48.694;9.476;2022-10-16T02:04:42;12.40;99.90
50013;DHT22;35901;48.694;9.476;2022-10-16T02:07:10;12.40;99.90
50013;DHT22;35901;48.694;9.476;2022-10-16T02:09:36;12.30;99.90
50013;DHT22;35901;48.694;9.476;2022-10-16T02:12:22;12.20;99.90
50013;DHT22;35901;48.694;9.476;2022-10-16T02:14:49;12.20;99.90
50013;DHT22;35901;48.694;9.476;2022-10-16T02:17:17;12.30;99.90
50013;DHT22;35901;48.694;9.476;2022-10-16T02:19:45;12.30;99.90
50013;DHT22;35901;48.694;9.476;2022-10-16T02:22:23;12.30;99.90
50013;DHT22;35901;48.694;9.476;2022-10-16T02:25:15;12.30;99.90
50013;DHT22;35901;48.694;9.476;2022-10-16T02:27:55;12.40;99.90
50013;DHT22;35901;48.694;9.476;2022-10-16T02:30:30;12.40;99.90
50013;DHT22;35901;48.694;9.476;2022-10-16T02:32:59;12.50;99.90
50013;DHT22;35901;48.694;9.476;2022-10-16T02:35:27;12.50;99.90
50013;DHT22;35901;48.694;9.476;2022-10-16T02:37:54;12.60;99.90
50013;DHT22;35901;48.694;9.476;2022-10-16T02:40:21;12.60;99.90
50013;DHT22;35901;48.694;9.476;2022-10-16T02:42:50;12.60;99.90
50013;DHT22;35901;48.694;9.476;2022-10-16T02:45:17;12.70;99.90
50013;DHT22;35901;48.694;9.476;2022-10-16T02:47:43;12.70;99.90
50013;DHT22;35901;48.694;9.476;2022-10-16T02:50:09;12.60;99.90
50013;DHT22;35901;48.694;9.476;2022-10-16T02:52:35;12.50;99.90
50013;DHT22;35901;48.694;9.476;2022-10-16T02:55:00;12.40;99.90
50013;DHT22;35901;48.694;9.476;2022-10-16T02:57:26;12.30;99.90
50013;DHT22;35901;48.694;9.476;2022-10-16T02:59:52;12.30;99.90
50013;DHT22;35901;48.694;9.476;2022-10-16T03:02:18;12.30;99.90
50013;DHT22;35901;48.694;9.476;2022-10-16T03:04:44;12.40;99.90
50013;DHT22;35901;48.694;9.476;2022-10-16T03:07:09;12.40;99.90
50013;DHT22;35901;48.694;9.476;2022-10-16T03:09:35;12.50;99.90
50013;DHT22;35901;48.694;9.476;2022-10-16T03:12:01;12.50;99.90
50013;DHT22;35901;48.694;9.476;2022-10-16T03:14:27;12.50;99.90
50013;DHT22;35901;48.694;9.476;2022-10-16T03:16:52;12.50;99.90
50013;DHT22;35901;48.694;9.476;2022-10-16T03:19:18;12.50;99.90
50013;DHT22;35901;48.694;9.476;2022-10-16T03:21:44;12.50;99.90
50013;DHT22;35901;48.694;9.476;2022-10-16T03:24:10;12.50;99.90
50013;DHT22;35901;48.694;9.476;2022-10-16T03:26:36;12.40;99.90
50013;DHT22;35901;48.694;9.476;2022-10-16T03:29:02;12.50;99.90
50013;DHT22;35901;48.694;9.476;2022-10-16T03:31:29;12.40;99.90
50013;DHT22;35901;48.694;9.476;2022-10-16T03:33:55;12.40;99.90
50013;DHT22;35901;48.694;9.476;2022-10-16T03:36:21;12.40;99.90
50013;DHT22;35901;48.694;9.476;2022-10-16T03:38:47;12.40;99.90
50013;DHT22;35901;48.694;9.476;2022-10-16T03:41:12;12.40;99.90
50013;DHT22;35901;48.694;9.476;2022-10-16T03:43:38;12.40;99.90
50013;DHT22;35901;48.694;9.476;2022-10-16T03:46:04;12.30;99.90
50013;DHT22;35901;48.694;9.476;2022-10-16T03:48:30;12.30;99.90
50013;DHT22;35901;48.694;9.476;2022-10-16T03:50:55;12.20;99.90
50013;DHT22;35901;48.694;9.476;2022-10-16T03:53:21;12.20;99.90
50013;DHT22;35901;48.694;9.476;2022-10-16T03:55:47;12.10;99.90
50013;DHT22;35901;48.694;9.476;2022-10-16T03:58:12;12.10;99.90
50013;DHT22;35901;48.694;9.476;2022-10-16T04:00:42;12.10;99.90
50013;DHT22;35901;48.694;9.476;2022-10-16T04:03:08;12.10;99.90
50013;DHT22;35901;48.694;9.476;2022-10-16T04:05:34;12.10;99.90
50013;DHT22;35901;48.694;9.476;2022-10-16T04:08:00;12.00;99.90
50013;DHT22;35901;48.694;9.476;2022-10-16T04:10:26;12.00;99.90
50013;DHT22;35901;48.694;9.476;2022-10-16T04:12:51;12.00;99.90
50013;DHT22;35901;48.694;9.476;2022-10-16T04:15:20;12.00;99.90
50013;DHT22;35901;48.694;9.476;2022-10-16T04:17:45;11.90;99.90
50013;DHT22;35901;48.694;9.476;2022-10-16T04:20:11;12.00;99.90
50013;DHT22;35901;48.694;9.476;2022-10-16T04:22:36;11.90;99.90
50013;DHT22;35901;48.694;9.476;2022-10-16T04:25:02;11.90;99.90
50013;DHT22;35901;48.694;9.476;2022-10-16T04:27:28;11.90;99.90
50013;DHT22;35901;48.694;9.476;2022-10-16T04:29:57;12.00;99.90
50013;DHT22;35901;48.694;9.476;2022-10-16T04:32:22;12.00;99.90
50013;DHT22;35901;48.694;9.476;2022-10-16T04:34:48;12.00;99.90
50013;DHT22;35901;48.694;9.476;2022-10-16T04:37:13;12.00;99.90
50013;DHT22;35901;48.694;9.476;2022-10-16T04:39:39;12.10;99.90
50013;DHT22;35901;48.694;9.476;2022-10-16T04:42:05;12.00;99.90
50013;DHT22;35901;48.694;9.476;2022-10-16T04:44:30;12.00;99.90
50013;DHT22;35901;48.694;9.476;2022-10-16T04:46:56;12.10;99.90
50013;DHT22;35901;48.694;9.476;2022-10-16T04:49:22;12.10;99.90
50013;DHT22;35901;48.694;9.476;2022-10-16T04:51:47;12.10;99.90
50013;DHT22;35901;48.694;9.476;2022-10-16T04:54:13;12.10;99.90
50013;DHT22;35901;48.694;9.476;2022-10-16T04:56:39;12.00;99.90
50013;DHT22;35901;48.694;9.476;2022-10-16T04:59:17;11.90;99.90
50013;DHT22;35901;48.694;9.476;2022-10-16T05:01:43;11.80;99.90
50013;DHT22;35901;48.694;9.476;2022-10-16T05:04:09;11.80;99.90
50013;DHT22;35901;48.694;9.476;2022-10-16T05:06:35;11.90;99.90
50013;DHT22;35901;48.694;9.476;2022-10-16T05:09:01;11.90;99.90
50013;DHT22;35901;48.694;9.476;2022-10-16T05:11:27;11.90;99.90
50013;DHT22;35901;48.694;9.476;2022-10-16T05:13:53;11.90;99.90
50013;DHT22;35901;48.694;9.476;2022-10-16T05:16:18;11.90;99.90
50013;DHT22;35901;48.694;9.476;2022-10-16T05:18:44;11.90;99.90
50013;DHT22;35901;48.694;9.476;2022-10-16T05:21:10;12.00;99.90
50013;DHT22;35901;48.694;9.476;2022-10-16T05:23:35;12.00;99.90
50013;DHT22;35901;48.694;9.476;2022-10-16T05:26:01;12.00;99.90
50013;DHT22;35901;48.694;9.476;2022-10-16T05:28:28;12.00;99.90
50013;DHT22;35901;48.694;9.476;2022-10-16T05:30:54;12.00;99.90
50013;DHT22;35901;48.694;9.476;2022-10-16T05:33:25;12.00;99.90
50013;DHT22;35901;48.694;9.476;2022-10-16T05:35:51;11.90;99.90
50013;DHT22;35901;48.694;9.476;2022-10-16T05:38:18;11.90;99.90
50013;DHT22;35901;48.694;9.476;2022-10-16T05:40:49;11.80;99.90
50013;DHT22;35901;48.694;9.476;2022-10-16T05:43:15;11.80;99.90
50013;DHT22;35901;48.694;9.476;2022-10-16T05:45:41;11.80;99.90
50013;DHT22;35901;48.694;9.476;2022-10-16T05:48:06;11.80;99.90
50013;DHT22;35901;48.694;9.476;2022-10-16T05:50:32;11.80;99.90
50013;DHT22;35901;48.694;9.476;2022-10-16T05:52:58;11.80;99.90
50013;DHT22;35901;48.694;9.476;2022-10-16T05:55:23;11.80;99.90
50013;DHT22;35901;48.694;9.476;2022-10-16T05:57:49;11.80;99.90
50013;DHT22;35901;48.694;9.476;2022-10-16T06:00:15;11.80;99.90
50013;DHT22;35901;48.694;9.476;2022-10-16T06:02:41;11.80;99.90
50013;DHT22;35901;48.694;9.476;2022-10-16T06:05:06;11.90;99.90
50013;DHT22;35901;48.694;9.476;2022-10-16T06:07:35;11.90;99.90
50013;DHT22;35901;48.694;9.476;2022-10-16T06:10:01;12.00;99.90
50013;DHT22;35901;48.694;9.476;2022-10-16T06:12:28;12.00;99.90
50013;DHT22;35901;48.694;9.476;2022-10-16T06:14:53;12.00;99.90
50013;DHT22;35901;48.694;9.476;2022-10-16T06:17:19;12.00;99.90
50013;DHT22;35901;48.694;9.476;2022-10-16T06:19:45;12.10;99.90
50013;DHT22;35901;48.694;9.476;2022-10-16T06:22:10;12.20;99.90
50013;DHT22;35901;48.694;9.476;2022-10-16T06:24:36;12.30;99.90
50013;DHT22;35901;48.694;9.476;2022-10-16T06:27:03;12.40;99.90
50013;DHT22;35901;48.694;9.476;2022-10-16T06:29:29;12.50;99.90
50013;DHT22;35901;48.694;9.476;2022-10-16T06:31:55;12.50;99.90
50013;DHT22;35901;48.694;9.476;2022-10-16T06:34:20;12.50;99.90
50013;DHT22;35901;48.694;9.476;2022-10-16T06:36:46;12.60;99.90
50013;DHT22;35901;48.694;9.476;2022-10-16T06:39:11;12.60;99.90
50013;DHT22;35901;48.694;9.476;2022-10-16T06:41:37;12.70;99.90
50013;DHT22;35901;48.694;9.476;2022-10-16T06:44:14;12.80;99.90
50013;DHT22;35901;48.694;9.476;2022-10-16T06:46:40;13.00;99.90
50013;DHT22;35901;48.694;9.476;2022-10-16T06:49:05;13.60;99.90
50013;DHT22;35901;48.694;9.476;2022-10-16T06:51:31;14.20;99.90
50013;DHT22;35901;48.694;9.476;2022-10-16T06:53:59;14.20;99.90
50013;DHT22;35901;48.694;9.476;2022-10-16T06:56:26;14.00;99.90
50013;DHT22;35901;48.694;9.476;2022-10-16T06:58:53;13.90;99.90
50013;DHT22;35901;48.694;9.476;2022-10-16T07:01:20;13.90;99.90
50013;DHT22;35901;48.694;9.476;2022-10-16T07:03:47;14.00;99.90
50013;DHT22;35901;48.694;9.476;2022-10-16T07:06:16;14.20;99.90
50013;DHT22;35901;48.694;9.476;2022-10-16T07:08:44;15.00;99.90
50013;DHT22;35901;48.694;9.476;2022-10-16T07:11:12;15.40;99.90
50013;DHT22;35901;48.694;9.476;2022-10-16T07:13:39;15.40;99.90
50013;DHT22;35901;48.694;9.476;2022-10-16T07:16:13;15.20;99.90
50013;DHT22;35901;48.694;9.476;2022-10-16T07:18:39;14.90;99.90
50013;DHT22;35901;48.694;9.476;2022-10-16T07:21:11;14.80;99.90
50013;DHT22;35901;48.694;9.476;2022-10-16T07:23:37;14.70;99.90
50013;DHT22;35901;48.694;9.476;2022-10-16T07:26:04;14.60;99.90
50013;DHT22;35901;48.694;9.476;2022-10-16T07:28:30;14.50;99.90
50013;DHT22;35901;48.694;9.476;2022-10-16T07:31:02;14.40;99.90
50013;DHT22;35901;48.694;9.476;2022-10-16T07:33:28;14.40;99.90
50013;DHT22;35901;48.694;9.476;2022-10-16T07:35:54;14.30;99.90
50013;DHT22;35901;48.694;9.476;2022-10-16T07:38:21;14.30;99.90
50013;DHT22;35901;48.694;9.476;2022-10-16T07:40:47;14.40;99.90
50013;DHT22;35901;48.694;9.476;2022-10-16T07:43:14;14.40;99.90
50013;DHT22;35901;48.694;9.476;2022-10-16T07:45:49;14.40;99.90
50013;DHT22;35901;48.694;9.476;2022-10-16T07:48:16;14.50;99.90
50013;DHT22;35901;48.694;9.476;2022-10-16T07:50:43;14.50;99.90
50013;DHT22;35901;48.694;9.476;2022-10-16T07:53:09;14.50;99.90
50013;DHT22;35901;48.694;9.476;2022-10-16T07:55:35;14.60;99.90
50013;DHT22;35901;48.694;9.476;2022-10-16T07:58:01;14.60;99.90
50013;DHT22;35901;48.694;9.476;2022-10-16T08:00:26;14.60;99.90
50013;DHT22;35901;48.694;9.476;2022-10-16T08:02:52;14.70;99.90
50013;DHT22;35901;48.694;9.476;2022-10-16T08:05:17;14.70;99.90
50013;DHT22;35901;48.694;9.476;2022-10-16T08:07:48;14.70;99.90
50013;DHT22;35901;48.694;9.476;2022-10-16T08:10:18;14.70;99.90
50013;DHT22;35901;48.694;9.476;2022-10-16T08:12:44;14.70;99.90
50013;DHT22;35901;48.694;9.476;2022-10-16T08:15:10;14.70;99.90
50013;DHT22;35901;48.694;9.476;2022-10-16T08:17:36;14.80;99.90
50013;DHT22;35901;48.694;9.476;2022-10-16T08:20:02;14.90;99.90
50013;DHT22;35901;48.694;9.476;2022-10-16T08:22:28;14.90;99.90
50013;DHT22;35901;48.694;9.476;2022-10-16T08:24:53;15.00;99.90
50013;DHT22;35901;48.694;9.476;2022-10-16T08:27:19;15.00;99.90
50013;DHT22;35901;48.694;9.476;2022-10-16T08:29:45;15.10;99.90
50013;DHT22;35901;48.694;9.476;2022-10-16T08:32:10;15.20;99.90
50013;DHT22;35901;48.694;9.476;2022-10-16T08:34:36;15.20;99.90
50013;DHT22;35901;48.694;9.476;2022-10-16T08:37:02;15.30;99.90
50013;DHT22;35901;48.694;9.476;2022-10-16T08:39:27;15.30;99.90
50013;DHT22;35901;48.694;9.476;2022-10-16T08:45:15;15.50;99.90
50013;DHT22;35901;48.694;9.476;2022-10-16T08:47:49;15.70;99.90
50013;DHT22;35901;48.694;9.476;2022-10-16T08:50:39;15.70;99.90
50013;DHT22;35901;48.694;9.476;2022-10-16T08:53:07;15.90;99.90
50013;DHT22;35901;48.694;9.476;2022-10-16T08:55:46;16.00;99.90
50013;DHT22;35901;48.694;9.476;2022-10-16T08:58:22;16.20;99.90
50013;DHT22;35901;48.694;9.476;2022-10-16T09:01:03;16.30;99.90
50013;DHT22;35901;48.694;9.476;2022-10-16T09:15:24;16.80;99.90
50013;DHT22;35901;48.694;9.476;2022-10-16T09:18:22;16.80;99.90
50013;DHT22;35901;48.694;9.476;2022-10-16T09:23:36;17.00;99.90
50013;DHT22;35901;48.694;9.476;2022-10-16T09:26:03;17.20;99.90
50013;DHT22;35901;48.694;9.476;2022-10-16T09:28:30;17.40;99.90
50013;DHT22;35901;48.694;9.476;2022-10-16T09:30:56;17.50;99.90
50013;DHT22;35901;48.694;9.476;2022-10-16T09:33:33;17.60;99.90
50013;DHT22;35901;48.694;9.476;2022-10-16T09:36:03;17.60;99.90
50013;DHT22;35901;48.694;9.476;2022-10-16T09:38:32;17.80;99.90
50013;DHT22;35901;48.694;9.476;2022-10-16T09:41:18;17.90;99.90
50013;DHT22;35901;48.694;9.476;2022-10-16T09:43:57;17.90;99.90
50013;DHT22;35901;48.694;9.476;2022-10-16T09:49:36;18.20;99.90
50013;DHT22;35901;48.694;9.476;2022-10-16T09:51:42;18.40;99.90
50013;DHT22;35901;48.694;9.476;2022-10-16T09:56:35;19.20;99.90
50013;DHT22;35901;48.694;9.476;2022-10-16T09:59:11;19.30;99.90
50013;DHT22;35901;48.694;9.476;2022-10-16T10:02:00;19.30;99.90
50013;DHT22;35901;48.694;9.476;2022-10-16T10:04:41;19.20;99.90
50013;DHT22;35901;48.694;9.476;2022-10-16T10:07:25;19.30;99.90
50013;DHT22;35901;48.694;9.476;2022-10-16T10:09:52;19.40;99.90
50013;DHT22;35901;48.694;9.476;2022-10-16T10:12:25;19.30;99.90
50013;DHT22;35901;48.694;9.476;2022-10-16T10:15:11;19.10;99.90
50013;DHT22;35901;48.694;9.476;2022-10-16T10:17:52;18.90;99.90
50013;DHT22;35901;48.694;9.476;2022-10-16T10:20:33;18.80;99.90
50013;DHT22;35901;48.694;9.476;2022-10-16T10:23:22;18.80;99.90
50013;DHT22;35901;48.694;9.476;2022-10-16T10:25:54;18.90;99.90
50013;DHT22;35901;48.694;9.476;2022-10-16T10:31:06;19.50;99.90
50013;DHT22;35901;48.694;9.476;2022-10-16T10:47:11;21.50;99.90
50013;DHT22;35901;48.694;9.476;2022-10-16T10:55:09;22.20;99.90
50013;DHT22;35901;48.694;9.476;2022-10-16T11:05:37;22.60;99.90
50013;DHT22;35901;48.694;9.476;2022-10-16T11:08:19;22.90;99.90
50013;DHT22;35901;48.694;9.476;2022-10-16T11:11:49;23.40;99.90
50013;DHT22;35901;48.694;9.476;2022-10-16T11:17:03;23.70;99.90
50013;DHT22;35901;48.694;9.476;2022-10-16T11:19:34;23.70;99.90
50013;DHT22;35901;48.694;9.476;2022-10-16T11:22:03;23.60;99.90
50013;DHT22;35901;48.694;9.476;2022-10-16T11:24:45;23.70;99.90
50013;DHT22;35901;48.694;9.476;2022-10-16T11:27:20;24.10;99.90
50013;DHT22;35901;48.694;9.476;2022-10-16T11:29:55;23.90;99.90
50013;DHT22;35901;48.694;9.476;2022-10-16T11:32:28;23.90;99.90
50013;DHT22;35901;48.694;9.476;2022-10-16T11:35:00;23.80;99.90
50013;DHT22;35901;48.694;9.476;2022-10-16T11:37:36;23.70;99.90
50013;DHT22;35901;48.694;9.476;2022-10-16T11:40:19;23.60;99.90
50013;DHT22;35901;48.694;9.476;2022-10-16T11:42:50;23.30;99.90
50013;DHT22;35901;48.694;9.476;2022-10-16T11:45:36;23.30;99.90
50013;DHT22;35901;48.694;9.476;2022-10-16T11:51:05;23.20;99.90
50013;DHT22;35901;48.694;9.476;2022-10-16T11:53:46;23.00;99.90
50013;DHT22;35901;48.694;9.476;2022-10-16T11:56:20;23.10;99.90
50013;DHT22;35901;48.694;9.476;2022-10-16T11:59:06;23.00;99.90
50013;DHT22;35901;48.694;9.476;2022-10-16T12:01:53;22.90;99.90
50013;DHT22;35901;48.694;9.476;2022-10-16T12:04:33;23.20;99.90
50013;DHT22;35901;48.694;9.476;2022-10-16T12:07:08;23.40;99.60
50013;DHT22;35901;48.694;9.476;2022-10-16T12:09:38;23.70;99.60
50013;DHT22;35901;48.694;9.476;2022-10-16T12:12:04;23.80;99.30
50013;DHT22;35901;48.694;9.476;2022-10-16T12:14:37;23.90;99.40
50013;DHT22;35901;48.694;9.476;2022-10-16T12:17:25;23.90;98.80
50013;DHT22;35901;48.694;9.476;2022-10-16T12:22:36;23.70;97.50
50013;DHT22;35901;48.694;9.476;2022-10-16T12:25:20;23.70;95.40
50013;DHT22;35901;48.694;9.476;2022-10-16T12:27:59;23.50;95.20
50013;DHT22;35901;48.694;9.476;2022-10-16T12:30:28;23.40;95.20
50013;DHT22;35901;48.694;9.476;2022-10-16T12:33:21;23.30;95.90
50013;DHT22;35901;48.694;9.476;2022-10-16T12:35:48;23.20;96.10
50013;DHT22;35901;48.694;9.476;2022-10-16T12:40:54;23.30;95.40
50013;DHT22;35901;48.694;9.476;2022-10-16T12:45:46;23.50;96.30
50013;DHT22;35901;48.694;9.476;2022-10-16T12:48:20;23.60;95.60
50013;DHT22;35901;48.694;9.476;2022-10-16T12:50:48;23.70;95.20
50013;DHT22;35901;48.694;9.476;2022-10-16T12:53:21;23.70;95.10
50013;DHT22;35901;48.694;9.476;2022-10-16T12:56:19;23.80;95.10
50013;DHT22;35901;48.694;9.476;2022-10-16T12:59:21;23.90;94.00
50013;DHT22;35901;48.694;9.476;2022-10-16T13:02:23;23.80;93.70
50013;DHT22;35901;48.694;9.476;2022-10-16T13:05:08;23.80;92.70
50013;DHT22;35901;48.694;9.476;2022-10-16T13:26:54;23.50;91.90
50013;DHT22;35901;48.694;9.476;2022-10-16T13:29:22;23.60;92.40
50013;DHT22;35901;48.694;9.476;2022-10-16T13:31:48;23.80;92.00
50013;DHT22;35901;48.694;9.476;2022-10-16T13:34:20;24.00;91.90
50013;DHT22;35901;48.694;9.476;2022-10-16T13:36:51;24.10;91.90
50013;DHT22;35901;48.694;9.476;2022-10-16T13:39:24;24.10;91.90
50013;DHT22;35901;48.694;9.476;2022-10-16T13:42:09;24.00;91.90
50013;DHT22;35901;48.694;9.476;2022-10-16T13:44:47;23.90;92.30
50013;DHT22;35901;48.694;9.476;2022-10-16T13:47:22;23.80;92.80
50013;DHT22;35901;48.694;9.476;2022-10-16T13:50:00;23.80;92.90
50013;DHT22;35901;48.694;9.476;2022-10-16T13:52:27;23.70;92.70
50013;DHT22;35901;48.694;9.476;2022-10-16T13:54:52;23.60;92.80
50013;DHT22;35901;48.694;9.476;2022-10-16T13:57:22;23.50;92.50
50013;DHT22;35901;48.694;9.476;2022-10-16T13:59:48;23.40;92.70
50013;DHT22;35901;48.694;9.476;2022-10-16T14:04:46;23.20;93.80
50013;DHT22;35901;48.694;9.476;2022-10-16T14:07:24;23.00;94.50
50013;DHT22;35901;48.694;9.476;2022-10-16T14:09:52;22.80;95.60
50013;DHT22;35901;48.694;9.476;2022-10-16T14:12:18;22.80;95.00
50013;DHT22;35901;48.694;9.476;2022-10-16T14:14:46;22.60;94.90
50013;DHT22;35901;48.694;9.476;2022-10-16T14:17:22;22.50;94.20
50013;DHT22;35901;48.694;9.476;2022-10-16T14:19:49;22.40;94.40
50013;DHT22;35901;48.694;9.476;2022-10-16T14:24:47;22.40;94.50
50013;DHT22;35901;48.694;9.476;2022-10-16T14:27:33;22.30;94.00
50013;DHT22;35901;48.694;9.476;2022-10-16T14:30:16;22.20;94.40
50013;DHT22;35901;48.694;9.476;2022-10-16T14:33:02;22.20;94.40
50013;DHT22;35901;48.694;9.476;2022-10-16T14:35:34;22.20;94.40
50013;DHT22;35901;48.694;9.476;2022-10-16T14:38:02;22.20;95.10
50013;DHT22;35901;48.694;9.476;2022-10-16T14:40:31;22.10;95.30
50013;DHT22;35901;48.694;9.476;2022-10-16T14:42:59;22.20;96.30
50013;DHT22;35901;48.694;9.476;2022-10-16T14:45:28;22.20;99.90
50013;DHT22;35901;48.694;9.476;2022-10-16T14:48:06;22.00;99.90
50013;DHT22;35901;48.694;9.476;2022-10-16T14:50:40;21.90;99.90
50013;DHT22;35901;48.694;9.476;2022-10-16T14:53:11;21.80;99.90
50013;DHT22;35901;48.694;9.476;2022-10-16T14:55:38;21.90;99.20
50013;DHT22;35901;48.694;9.476;2022-10-16T14:58:04;21.80;98.50
50013;DHT22;35901;48.694;9.476;2022-10-16T15:00:30;21.70;98.80
50013;DHT22;35901;48.694;9.476;2022-10-16T15:02:56;21.50;98.10
50013;DHT22;35901;48.694;9.476;2022-10-16T15:05:24;21.40;97.80
50013;DHT22;35901;48.694;9.476;2022-10-16T15:07:50;21.40;97.70
50013;DHT22;35901;48.694;9.476;2022-10-16T15:10:17;21.30;97.50
50013;DHT22;35901;48.694;9.476;2022-10-16T15:12:43;21.30;97.40
50013;DHT22;35901;48.694;9.476;2022-10-16T15:17:58;21.20;97.40
50013;DHT22;35901;48.694;9.476;2022-10-16T15:20:28;21.20;98.40
50013;DHT22;35901;48.694;9.476;2022-10-16T15:22:55;21.00;99.90
50013;DHT22;35901;48.694;9.476;2022-10-16T15:25:38;20.90;99.90
50013;DHT22;35901;48.694;9.476;2022-10-16T15:28:07;20.80;99.90
50013;DHT22;35901;48.694;9.476;2022-10-16T15:30:34;20.70;99.90
50013;DHT22;35901;48.694;9.476;2022-10-16T15:33:01;20.50;99.90
50013;DHT22;35901;48.694;9.476;2022-10-16T15:35:28;20.40;99.90
50013;DHT22;35901;48.694;9.476;2022-10-16T15:37:54;20.30;99.90
50013;DHT22;35901;48.694;9.476;2022-10-16T15:40:20;20.20;99.90
50013;DHT22;35901;48.694;9.476;2022-10-16T15:42:46;20.30;99.90
50013;DHT22;35901;48.694;9.476;2022-10-16T15:45:13;20.20;99.90
50013;DHT22;35901;48.694;9.476;2022-10-16T15:47:41;20.10;99.90
50013;DHT22;35901;48.694;9.476;2022-10-16T15:50:08;20.00;99.90
50013;DHT22;35901;48.694;9.476;2022-10-16T15:52:34;20.00;99.90
50013;DHT22;35901;48.694;9.476;2022-10-16T15:55:00;19.90;99.90
50013;DHT22;35901;48.694;9.476;2022-10-16T15:57:28;19.80;99.90
50013;DHT22;35901;48.694;9.476;2022-10-16T15:59:54;19.70;99.90
50013;DHT22;35901;48.694;9.476;2022-10-16T16:02:20;19.70;99.90
50013;DHT22;35901;48.694;9.476;2022-10-16T16:04:46;19.50;99.90
50013;DHT22;35901;48.694;9.476;2022-10-16T16:07:11;19.50;99.90
50013;DHT22;35901;48.694;9.476;2022-10-16T16:09:37;19.40;99.90
50013;DHT22;35901;48.694;9.476;2022-10-16T16:12:03;19.40;99.90
50013;DHT22;35901;48.694;9.476;2022-10-16T16:14:29;19.30;99.90
50013;DHT22;35901;48.694;9.476;2022-10-16T16:16:55;19.30;99.90
50013;DHT22;35901;48.694;9.476;2022-10-16T16:19:21;19.10;99.90
50013;DHT22;35901;48.694;9.476;2022-10-16T16:21:48;18.90;99.90
50013;DHT22;35901;48.694;9.476;2022-10-16T16:24:14;18.80;99.90
50013;DHT22;35901;48.694;9.476;2022-10-16T16:26:40;18.60;99.90
50013;DHT22;35901;48.694;9.476;2022-10-16T16:29:15;18.40;99.90
50013;DHT22;35901;48.694;9.476;2022-10-16T16:31:41;18.30;99.90
50013;DHT22;35901;48.694;9.476;2022-10-16T16:34:08;18.30;99.90
50013;DHT22;35901;48.694;9.476;2022-10-16T16:36:34;18.20;99.90
50013;DHT22;35901;48.694;9.476;2022-10-16T16:39:00;18.20;99.90
50013;DHT22;35901;48.694;9.476;2022-10-16T16:41:28;18.20;99.90
50013;DHT22;35901;48.694;9.476;2022-10-16T16:43:55;18.10;99.90
50013;DHT22;35901;48.694;9.476;2022-10-16T16:46:26;18.10;99.90
50013;DHT22;35901;48.694;9.476;2022-10-16T16:48:51;18.00;99.90
50013;DHT22;35901;48.694;9.476;2022-10-16T16:51:21;17.80;99.90
50013;DHT22;35901;48.694;9.476;2022-10-16T16:53:49;17.70;99.90
50013;DHT22;35901;48.694;9.476;2022-10-16T16:56:16;17.50;99.90
50013;DHT22;35901;48.694;9.476;2022-10-16T16:58:46;17.30;99.90
50013;DHT22;35901;48.694;9.476;2022-10-16T17:01:12;17.20;99.90
50013;DHT22;35901;48.694;9.476;2022-10-16T17:03:38;17.00;99.90
50013;DHT22;35901;48.694;9.476;2022-10-16T17:06:06;16.80;99.90
50013;DHT22;35901;48.694;9.476;2022-10-16T17:08:34;16.80;99.90
50013;DHT22;35901;48.694;9.476;2022-10-16T17:11:01;16.90;99.90
50013;DHT22;35901;48.694;9.476;2022-10-16T17:13:29;16.90;99.90
50013;DHT22;35901;48.694;9.476;2022-10-16T17:15:55;16.70;99.90
50013;DHT22;35901;48.694;9.476;2022-10-16T17:18:23;16.60;99.90
50013;DHT22;35901;48.694;9.476;2022-10-16T17:20:49;16.50;99.90
50013;DHT22;35901;48.694;9.476;2022-10-16T17:23:16;16.50;99.90
50013;DHT22;35901;48.694;9.476;2022-10-16T17:25:42;16.50;99.90
50013;DHT22;35901;48.694;9.476;2022-10-16T17:28:09;16.40;99.90